createdAt,value
2018-05-08T00:03:15.892Z,2.13
2018-05-08T00:08:10.263Z,2.33
2018-05-08T00:13:04.656Z,2.60
2018-05-08T00:17:59.013Z,2.50
2018-05-08T00:22:53.354Z,2.77
2018-05-08T00:27:47.879Z,2.30
2018-05-08T00:32:42.249Z,2.37
2018-05-08T00:37:37.398Z,2.30
2018-05-08T00:42:32.214Z,2.30
2018-05-08T00:47:26.547Z,2.20
2018-05-08T00:52:20.892Z,2.10
2018-05-08T00:57:15.253Z,2.13
2018-05-08T01:02:09.587Z,2.13
2018-05-08T01:07:04.710Z,2.30
2018-05-08T01:11:59.858Z,2.77
2018-05-08T01:16:54.216Z,3.00
2018-05-08T01:21:48.574Z,2.93
2018-05-08T01:26:42.942Z,2.57
2018-05-08T01:31:39.371Z,2.90
2018-05-08T01:36:34.061Z,3.00
2018-05-08T01:41:28.438Z,3.20
2018-05-08T01:46:22.904Z,2.77
2018-05-08T01:51:17.800Z,2.80
2018-05-08T01:56:12.154Z,2.30
2018-05-08T02:01:06.524Z,2.70
2018-05-08T02:06:01.638Z,2.80
2018-05-08T02:10:56.770Z,2.33
2018-05-08T02:15:52.146Z,2.30
2018-05-08T02:20:46.752Z,2.80
2018-05-08T02:25:41.248Z,2.80
2018-05-08T02:30:35.365Z,2.77
2018-05-08T02:35:30.284Z,2.60
2018-05-08T02:40:24.652Z,2.47
2018-05-08T02:45:19.041Z,2.77
2018-05-08T02:50:13.402Z,2.40
2018-05-08T02:55:07.583Z,2.40
2018-05-08T03:00:02.009Z,2.40
2018-05-08T03:04:56.356Z,2.87
2018-05-08T03:09:50.738Z,2.67
2018-05-08T03:14:45.065Z,2.80
2018-05-08T03:19:40.094Z,2.50
2018-05-08T03:24:34.454Z,2.40
2018-05-08T03:29:29.578Z,2.67
2018-05-08T03:34:24.733Z,2.80
2018-05-08T03:39:21.452Z,3.20
2018-05-08T03:44:16.690Z,2.70
2018-05-08T03:49:11.119Z,2.93
2018-05-08T03:54:05.727Z,2.70
2018-05-08T03:59:00.605Z,2.70
2018-05-08T04:04:12.951Z,2.40
2018-05-08T04:09:07.312Z,2.70
2018-05-08T04:14:01.686Z,2.47
2018-05-08T04:18:57.699Z,2.40
2018-05-08T04:23:52.056Z,2.63
2018-05-08T04:28:46.430Z,2.83
2018-05-08T04:33:41.659Z,2.50
2018-05-08T04:38:36.164Z,2.60
2018-05-08T04:43:30.506Z,2.70
2018-05-08T04:48:25.886Z,2.73
2018-05-08T04:53:20.304Z,2.43
2018-05-08T04:58:16.174Z,2.90
2018-05-08T05:03:11.176Z,3.17
2018-05-08T05:08:05.543Z,2.83
2018-05-08T05:12:59.898Z,2.40
2018-05-08T05:17:55.162Z,2.60
2018-05-08T05:22:49.554Z,2.90
2018-05-08T05:27:44.274Z,2.60
2018-05-08T05:32:39.318Z,2.70
2018-05-08T05:37:34.856Z,2.73
2018-05-08T05:42:29.222Z,2.60
2018-05-08T05:47:23.607Z,2.57
2018-05-08T05:52:17.968Z,2.60
2018-05-08T05:57:12.326Z,2.40
2018-05-08T06:02:07.007Z,2.40
2018-05-08T06:07:01.782Z,2.63
2018-05-08T06:12:05.287Z,2.13
2018-05-08T06:16:59.943Z,2.27
2018-05-08T06:21:54.896Z,2.47
2018-05-08T06:26:50.300Z,2.23
2018-05-08T06:31:45.191Z,2.23
2018-05-08T06:36:40.016Z,2.57
2018-05-08T06:41:34.640Z,2.10
2018-05-08T06:46:29.904Z,1.90
2018-05-08T06:51:24.526Z,2.17
2018-05-08T06:56:19.169Z,2.20
2018-05-08T07:01:13.815Z,2.13
2018-05-08T07:06:08.459Z,1.97
2018-05-08T07:11:03.085Z,2.00
2018-05-08T07:15:57.807Z,2.40
2018-05-08T07:20:52.540Z,2.40
2018-05-08T07:25:48.042Z,2.40
2018-05-08T07:30:43.126Z,2.50
2018-05-08T07:35:38.701Z,2.10
2018-05-08T07:40:33.913Z,2.47
2018-05-08T07:45:28.690Z,2.23
2018-05-08T07:50:23.734Z,2.40
2018-05-08T07:55:18.354Z,2.27
2018-05-08T08:00:13.093Z,2.47
2018-05-08T08:05:08.524Z,2.00
2018-05-08T08:10:03.166Z,2.00
2018-05-08T08:14:57.979Z,2.10
2018-05-08T08:19:52.637Z,2.00
2018-05-08T08:24:47.496Z,2.43
2018-05-08T08:29:42.181Z,2.27
2018-05-08T08:34:36.989Z,2.30
2018-05-08T08:39:32.643Z,2.13
2018-05-08T08:44:27.252Z,2.00
2018-05-08T08:49:21.652Z,2.00
2018-05-08T08:54:16.083Z,2.00
2018-05-08T08:59:10.710Z,2.10
2018-05-08T09:04:05.550Z,1.97
2018-05-08T09:09:01.089Z,2.07
2018-05-08T09:13:56.299Z,2.17
2018-05-08T09:18:50.912Z,1.87
2018-05-08T09:23:46.297Z,2.00
2018-05-08T09:28:40.920Z,2.13
2018-05-08T09:33:35.782Z,2.07
2018-05-08T09:38:30.391Z,2.13
2018-05-08T09:43:25.023Z,2.10
2018-05-08T09:48:19.683Z,2.00
2018-05-08T09:53:15.106Z,1.90
2018-05-08T09:58:09.742Z,1.87
2018-05-08T10:03:04.394Z,2.30
2018-05-08T10:07:59.025Z,2.10
2018-05-08T10:12:53.645Z,2.10
2018-05-08T10:17:47.999Z,2.40
2018-05-08T10:22:43.136Z,2.33
2018-05-08T10:27:38.269Z,1.97
2018-05-08T10:32:33.553Z,2.00
2018-05-08T10:37:27.907Z,1.70
2018-05-08T10:42:22.262Z,2.17
2018-05-08T10:47:16.652Z,2.57
2018-05-08T10:52:11.025Z,2.20
2018-05-08T10:57:05.401Z,2.23
2018-05-08T11:02:00.606Z,2.03
2018-05-08T11:06:54.994Z,2.30
2018-05-08T11:11:49.342Z,2.10
2018-05-08T11:16:44.458Z,2.03
2018-05-08T11:21:38.813Z,1.93
2018-05-08T11:26:33.221Z,1.90
2018-05-08T11:31:27.723Z,2.37
2018-05-08T11:36:22.278Z,1.90
2018-05-08T11:41:16.905Z,2.00
2018-05-08T11:46:11.441Z,1.90
2018-05-08T11:51:05.812Z,2.27
2018-05-08T11:56:00.460Z,1.80
2018-05-08T12:00:54.875Z,1.80
2018-05-08T12:05:50.148Z,2.00
2018-05-08T12:10:44.507Z,1.80
2018-05-08T12:15:39.918Z,1.60
2018-05-08T12:20:34.305Z,1.87
2018-05-08T12:25:28.835Z,1.70
2018-05-08T12:30:23.348Z,1.70
2018-05-08T12:35:18.518Z,1.73
2018-05-08T12:40:12.898Z,1.50
2018-05-08T12:45:07.301Z,1.57
2018-05-08T12:50:01.431Z,1.50
2018-05-08T12:54:55.782Z,1.80
2018-05-08T12:59:50.883Z,1.50
2018-05-08T13:04:45.350Z,1.93
2018-05-08T13:09:39.728Z,1.47
2018-05-08T13:14:34.238Z,1.60
2018-05-08T13:19:28.593Z,1.50
2018-05-08T13:24:22.971Z,1.87
2018-05-08T13:29:17.102Z,1.80
2018-05-08T13:34:11.457Z,1.70
2018-05-08T13:39:05.157Z,1.60
2018-05-08T13:43:59.540Z,1.60
2018-05-08T13:48:53.889Z,1.60
2018-05-08T13:53:48.258Z,1.70
2018-05-08T13:58:42.791Z,1.50
2018-05-08T14:03:37.571Z,1.70
2018-05-08T14:08:31.928Z,1.57
2018-05-08T14:13:27.063Z,1.60
2018-05-08T14:18:22.229Z,1.40
2018-05-08T14:23:16.578Z,1.80
2018-05-08T14:28:11.715Z,1.50
2018-05-08T14:33:07.174Z,1.50
2018-05-08T14:38:01.519Z,1.23
2018-05-08T14:42:55.875Z,1.50
2018-05-08T14:47:50.494Z,1.50
2018-05-08T14:52:44.838Z,1.53
2018-05-08T14:57:39.950Z,1.20
2018-05-08T15:02:35.212Z,2.83
2018-05-08T15:07:29.569Z,5.10
2018-05-08T15:12:23.931Z,1.37
2018-05-08T15:17:18.503Z,1.67
2018-05-08T15:22:13.665Z,1.40
2018-05-08T15:27:08.198Z,1.50
2018-05-08T15:32:02.596Z,1.30
2018-05-08T15:36:57.005Z,1.70
2018-05-08T15:41:51.366Z,1.23
2018-05-08T15:46:46.116Z,1.40
2018-05-08T15:51:40.555Z,1.40
2018-05-08T15:56:35.804Z,1.40
2018-05-08T16:01:31.213Z,1.10
2018-05-08T16:06:25.590Z,1.20
2018-05-08T16:11:20.504Z,1.60
2018-05-08T16:16:15.328Z,2.23
2018-05-08T16:21:10.714Z,1.47
2018-05-08T16:26:13.716Z,1.43
2018-05-08T16:31:09.204Z,1.60
2018-05-08T16:36:03.918Z,1.50
2018-05-08T16:40:59.314Z,1.57
2018-05-08T16:45:53.658Z,1.50
2018-05-08T16:50:48.230Z,1.37
2018-05-08T16:55:42.930Z,1.40
2018-05-08T17:00:37.246Z,1.40
2018-05-08T17:05:32.365Z,1.77
2018-05-08T17:10:27.524Z,1.70
2018-05-08T17:15:23.011Z,1.20
2018-05-08T17:20:17.892Z,1.40
2018-05-08T17:25:12.367Z,1.40
2018-05-08T17:30:06.754Z,1.67
2018-05-08T17:35:01.876Z,1.53
2018-05-08T17:39:56.320Z,1.70
2018-05-08T17:44:50.683Z,1.70
2018-05-08T17:49:46.500Z,1.60
2018-05-08T17:54:41.613Z,1.53
2018-05-08T17:59:36.294Z,3.10
2018-05-08T18:04:31.403Z,2.50
2018-05-08T18:09:25.914Z,1.60
2018-05-08T18:14:20.303Z,1.87
2018-05-08T18:19:14.724Z,1.70
2018-05-08T18:24:10.159Z,2.00
2018-05-08T18:29:04.831Z,2.20
2018-05-08T18:34:00.593Z,1.67
2018-05-08T18:38:56.525Z,2.07
2018-05-08T18:43:52.267Z,1.80
2018-05-08T18:48:47.167Z,2.00
2018-05-08T18:53:42.250Z,2.10
2018-05-08T18:58:38.345Z,1.87
2018-05-08T19:03:34.013Z,2.00
2018-05-08T19:08:29.733Z,2.07
2018-05-08T19:13:24.338Z,1.90
2018-05-08T19:34:12.286Z,2.73
2018-05-08T19:39:06.710Z,3.07
2018-05-08T19:44:01.535Z,2.17
2018-05-08T19:48:56.064Z,2.50
2018-05-08T19:53:51.182Z,3.17
2018-05-08T19:58:45.556Z,2.87
2018-05-08T20:03:39.908Z,2.50
2018-05-08T20:08:34.271Z,2.03
2018-05-08T20:13:29.650Z,2.20
2018-05-08T20:18:24.039Z,2.23
2018-05-08T20:23:18.459Z,2.07
2018-05-08T20:28:13.067Z,2.60
2018-05-08T20:33:07.457Z,2.17
2018-05-08T20:38:01.809Z,2.20
2018-05-08T20:42:56.305Z,1.80
2018-05-08T20:47:51.568Z,2.07
2018-05-08T20:52:47.857Z,2.10
2018-05-08T20:57:42.374Z,2.13
2018-05-08T21:02:37.454Z,2.23
2018-05-08T21:07:31.878Z,2.20
2018-05-08T21:12:26.385Z,2.03
2018-05-08T21:17:20.799Z,2.20
2018-05-08T21:22:15.220Z,2.00
2018-05-08T21:27:09.445Z,1.97
2018-05-08T21:32:04.728Z,2.70
2018-05-08T21:36:59.117Z,2.30
2018-05-08T21:41:53.548Z,2.63
2018-05-08T21:46:47.916Z,2.50
2018-05-08T21:51:42.539Z,3.17
2018-05-08T21:56:36.935Z,2.97
2018-05-08T22:01:31.292Z,2.97
2018-05-08T22:06:26.501Z,2.70
2018-05-08T22:11:20.922Z,3.17
2018-05-08T22:16:16.151Z,2.80
2018-05-08T22:21:11.369Z,3.10
2018-05-08T22:26:06.787Z,3.27
2018-05-08T22:31:01.968Z,2.70
2018-05-08T22:35:56.502Z,3.10
2018-05-08T22:40:51.753Z,2.70
2018-05-08T22:45:47.026Z,2.80
2018-05-08T22:50:41.666Z,2.60
2018-05-08T22:55:36.072Z,2.50
2018-05-08T23:00:32.379Z,2.13
2018-05-08T23:05:26.946Z,2.27
2018-05-08T23:10:22.201Z,2.40
2018-05-08T23:15:16.580Z,2.40
2018-05-08T23:20:11.210Z,2.00
2018-05-08T23:25:05.738Z,2.17
2018-05-08T23:30:00.092Z,2.47
2018-05-08T23:34:54.462Z,2.40
2018-05-08T23:39:48.827Z,3.17
2018-05-08T23:44:43.172Z,2.97
2018-05-08T23:49:37.528Z,3.30
2018-05-08T23:54:32.075Z,3.10
2018-05-08T23:59:26.423Z,3.00
